Flight Track Log - Related Links

Times and Time Zones

All times are in EDT time to prevent confusion due to time zone crossing. See the N51800 flight status page for this flight to view local times or setup timezone preferences in your user account.

Time Position Orientation Groundspeed Altitude Reporting Facility
EDT Latitude Longitude Course Direction KTS MPH feet Rate Location/Type
Thu 12:03:18 AM 32.2967 -98.1778 15° North 105 121 4,300  Level Fort Worth Center
Thu 12:04:18 AM 32.3133 -98.1681 26° Northeast 65 75 4,800 300 Climbing Fort Worth Center
Thu 12:05:18 AM 32.3342 -98.1608 16° North 65 75 4,900 50 Climbing Fort Worth Center
Thu 12:06:18 AM 32.3636 -98.1414 29° Northeast 96 110 4,900  Level Fort Worth Center
Thu 12:07:18 AM 32.3908 -98.1317 17° North 101 116 4,900  Level Fort Worth Center
Thu 12:08:00 AM 32.3675 -98.1062 15° North  Level FlightAware Approximate
Thu 12:08:18 AM 32.4200 -98.1247 11° North 106 122 4,900  Level Fort Worth Center
Thu 12:09:18 AM 32.4472 -98.1125 21° North 106 122 4,900  Level Fort Worth Center
Thu 12:10:18 AM 32.4767 -98.1006 19° North 106 122 4,900  Level Fort Worth Center
Thu 12:11:18 AM 32.5058 -98.0908 16° North 106 122 4,900  Level Fort Worth Center
Thu 12:12:18 AM 32.5331 -98.0764 24° Northeast 106 122 4,900  Level Fort Worth Center
Thu 12:13:18 AM 32.5622 -98.0642 19° North 106 122 4,900  Level Fort Worth Center
Thu 12:14:18 AM 32.5917 -98.0519 19° North 106 122 4,900  Level Fort Worth Center
Thu 12:15:18 AM 32.6189 -98.0400 20° North 106 122 4,900  Level Fort Worth Center
Thu 12:16:18 AM 32.6461 -98.0278 21° North 106 122 4,900  Level Fort Worth Center
Thu 12:17:18 AM 32.6733 -98.0181 17° North 101 116 4,900  Level Fort Worth Center
Thu 12:18:18 AM 32.7003 -98.0058 21° North 101 116 4,900  Level Fort Worth Center
Thu 12:19:18 AM 32.7297 -97.9939 19° North 101 116 4,900 50 Level Fort Worth Center
Thu 12:20:18 AM 32.7589 -97.9914 North 106 122 5,000  Climbing Fort Worth Center
Thu 12:21:18 AM 32.7883 -97.9817 16° North 106 122 4,900 -50 Descending Fort Worth Center
Thu 12:22:18 AM 32.8133 -97.9769 North 106 122 4,900  Level Fort Worth Center
Thu 12:23:18 AM 32.8467 -97.9697 10° North 106 122 4,900  Level Fort Worth Center
Thu 12:24:18 AM 32.8739 -97.9600 17° North 106 122 4,900  Level Fort Worth Center
Thu 12:25:18 AM 32.9053 -97.9553 North 106 122 4,900  Level Fort Worth Center
Thu 12:26:18 AM 32.9325 -97.9506 North 106 122 4,900  Level Fort Worth Center
Thu 12:27:18 AM 32.9636 -97.9408 15° North 106 122 4,900  Level Fort Worth Center
Thu 12:28:18 AM 32.9889 -97.9311 18° North 106 122 4,900  Level Fort Worth Center
Thu 12:29:18 AM 33.0203 -97.9214 15° North 106 122 4,900  Level Fort Worth Center
Thu 12:30:18 AM 33.0472 -97.9189 North 106 122 4,900  Level Fort Worth Center
Thu 12:31:18 AM 33.0786 -97.9117 11° North 106 122 4,900 50 Level Fort Worth Center
Thu 12:32:18 AM 33.1039 -97.9019 18° North 101 116 5,000 50 Climbing Fort Worth Center
Thu 12:33:18 AM 33.1331 -97.8847 26° Northeast 106 122 5,000 -50 Level Fort Worth Center
Thu 12:34:18 AM 33.1561 -97.8725 24° Northeast 106 122 4,900 -50 Descending Fort Worth Center
Thu 12:35:18 AM 33.1894 -97.8603 17° North 106 122 4,900  Level Fort Worth Center
Thu 12:36:18 AM 33.2144 -97.8578 North 106 122 4,900  Level Fort Worth Center
Thu 12:37:18 AM 33.2500 -97.8606 356° North 106 122 4,900  Level Fort Worth Center
Thu 12:38:18 AM 33.2750 -97.8631 355° North 106 122 4,900 50 Level Fort Worth Center
Thu 12:39:18 AM 33.3106 -97.8633 360° North 106 122 5,000 50 Climbing Fort Worth Center
Thu 12:40:18 AM 33.3356 -97.8511 22° Northeast 106 122 5,000 50 Level Fort Worth Center
Thu 12:41:18 AM 33.3669 -97.8439 11° North 106 122 5,100  Climbing Fort Worth Center
Thu 12:42:18 AM 33.3942 -97.8389 North 106 122 5,000  Descending Fort Worth Center
Thu 12:43:18 AM 33.4275 -97.8367 North 106 122 5,100  Climbing Fort Worth Center
Thu 12:44:18 AM 33.4547 -97.8317 North 106 122 5,000  Descending Fort Worth Center
Thu 12:45:18 AM 33.4861 -97.8294 North 106 122 5,100 -50 Climbing Fort Worth Center
Thu 12:46:18 AM 33.5131 -97.8194 17° North 106 122 4,900 -100 Descending Fort Worth Center
Thu 12:47:18 AM 33.5342 -97.8022 34° Northeast 92 106 4,900  Level Fort Worth Center
Thu 12:48:18 AM 33.5447 -97.7722 67° East 92 106 4,900  Level Fort Worth Center
Thu 12:49:18 AM 33.5594 -97.7375 63° Northeast 99 114 4,900  Level Fort Worth Center
Thu 12:50:18 AM 33.5719 -97.7125 59° Northeast 99 114 4,900  Level Fort Worth Center
Thu 12:51:18 AM 33.5803 -97.6753 75° East 99 114 4,900 50 Level Fort Worth Center
Thu 12:52:18 AM 33.5889 -97.6403 74° East 93 107 5,000  Climbing Fort Worth Center
Thu 12:53:18 AM 33.5992 -97.6106 67° East 93 107 4,900 -50 Descending Fort Worth Center
Thu 12:54:18 AM 33.6139 -97.5806 59° Northeast 93 107 4,900  Level Fort Worth Center
Thu 12:55:18 AM 33.6203 -97.5481 77° East 98 113 4,900  Level Fort Worth Center
Thu 12:56:18 AM 33.6264 -97.5133 78° East 98 113 4,900  Level Fort Worth Center
Thu 12:57:18 AM 33.6392 -97.4833 63° Northeast 98 113 4,900  Level Fort Worth Center
Thu 12:58:18 AM 33.6536 -97.4558 58° Northeast 98 113 4,900 50 Level Fort Worth Center
Thu 12:59:18 AM 33.6683 -97.4233 61° Northeast 98 113 5,000 50 Climbing Fort Worth Center
Thu 01:00:18 AM 33.6744 -97.3961 75° East 98 113 5,000  Level Fort Worth Center
Thu 01:01:18 AM 33.6828 -97.3636 73° East 98 113 5,000 -50 Level Fort Worth Center
Thu 01:02:18 AM 33.6892 -97.3286 78° East 98 113 4,900  Descending Fort Worth Center
Thu 01:03:18 AM 33.6975 -97.2961 73° East 98 113 5,000 50 Climbing Fort Worth Center
Thu 01:04:18 AM 33.7119 -97.2661 60° Northeast 98 113 5,000  Level Fort Worth Center
Thu 01:05:18 AM 33.7203 -97.2336 73° East 98 113 5,000  Level Fort Worth Center
Thu 01:06:18 AM 33.7308 -97.1936 72° East 98 113 5,000  Level Fort Worth Center
Thu 01:07:18 AM 33.7411 -97.1636 68° East 98 113 5,000  Level Fort Worth Center
Thu 01:08:18 AM 33.7514 -97.1336 68° East 98 113 5,000  Level Fort Worth Center
Thu 01:09:18 AM 33.7639 -97.1011 65° Northeast 98 113 5,000  Level Fort Worth Center
Thu 01:10:18 AM 33.7783 -97.0736 58° Northeast 93 107 5,000  Level Fort Worth Center
Thu 01:11:18 AM 33.7889 -97.0436 67° East 93 107 5,000  Level Fort Worth Center
Thu 01:12:18 AM 33.7950 -97.0086 78° East 99 114 5,000  Level Fort Worth Center
Thu 01:13:18 AM 33.7886 -96.9711 102° East 104 120 5,000  Level Fort Worth Center
Thu 01:14:18 AM 33.7883 -96.9336 91° East 104 120 5,000  Level Fort Worth Center
Thu 01:15:18 AM 33.7819 -96.8961 102° East 104 120 5,000  Level Fort Worth Center
Thu 01:16:18 AM 33.7839 -96.8611 86° East 104 120 5,000  Level Fort Worth Center
Thu 01:17:18 AM 33.7858 -96.8311 86° East 104 120 5,000  Level Fort Worth Center
Thu 01:18:18 AM 33.7858 -96.7911 90° East 104 120 5,000  Level Fort Worth Center
Thu 01:19:18 AM 33.7836 -96.7586 95° East 104 120 5,000  Level Fort Worth Center
Thu 01:20:18 AM 33.7853 -96.7161 87° East 104 120 5,000  Level Fort Worth Center
Thu 01:21:18 AM 33.7831 -96.6861 95° East 104 120 5,000  Level Fort Worth Center
Thu 01:22:18 AM 33.7828 -96.6464 90° East 104 120 5,000  Level Fort Worth Center
Thu 01:23:18 AM 33.7828 -96.6114 90° East 104 120 5,000  Level Fort Worth Center
Thu 01:24:18 AM 33.7783 -96.5764 99° East 104 120 5,000  Level Fort Worth Center

Login

Don't have an account? Register now (free) for customized features, flight alerts, and more!